Meishan, China
Current Conditions -  °F | °C
As of 5:00 PM on Thursday 18 Dec 2014 (Local Time) from ZUUU Reporting Station
Clear Clear  
Wind Chill: 50°   Ceiling: Unl
Heat Index: 50°   Visibility: 6mi
Dew Point: 25°   Wind: 2mph
Humidity: 37%   Direction: NA
Pressure: 30.33"   Gusts: NA
Location:  30.05°N, 103.85°E
Report Text: ZUUU 180900Z VRB01MPS CAVOK 10/M04 Q1027 NOSIG
Loading
Personal Weather Stations






























Interactive Weather Map New forecast layout! Learn more

10-Day Weather Forecast

Advertisements
Track Severe Weather on mobile